Time;durP1;ratioP1;P1;durP2;ratioP2;P2;SDS_P1;SDS_P2;PMS_P1;PMS_P2;Temp;Humidity;BMP_temperature;BMP_pressure;BME280_temperature;BME280_humidity;BME280_pressure;Samples;Min_cycle;Max_cycle;Signal;HPM_P1;HPM_P2
2021/12/14 00:01:18;;;;;;;20.17;15.73;;;8.80;99.90;;;;;;4971029;28;20102;-85
2021/12/14 00:03:45;;;;;;;21.35;16.40;;;8.80;99.90;;;;;;4954399;28;20072;-84
2021/12/14 00:06:12;;;;;;;23.48;16.17;;;8.80;99.90;;;;;;4954495;28;20252;-85
2021/12/14 00:08:48;;;;;;;19.73;15.75;;;8.90;99.90;;;;;;4954031;28;20046;-85
2021/12/14 00:11:31;;;;;;;20.20;15.40;;;8.80;99.90;;;;;;4956393;28;20511;-84
2021/12/14 00:14:27;;;;;;;18.63;14.68;;;8.80;99.90;;;;;;4957126;28;20055;-86
2021/12/14 00:16:56;;;;;;;20.75;15.07;;;8.80;99.90;;;;;;4958764;28;20709;-84
2021/12/14 00:19:22;;;;;;;17.88;14.32;;;8.80;99.90;;;;;;4955254;28;20082;-85
2021/12/14 00:21:51;;;;;;;18.63;13.20;;;8.90;99.90;;;;;;4970372;28;20109;-84
2021/12/14 00:24:17;;;;;;;22.27;16.45;;;8.80;99.90;;;;;;4942584;28;20051;-85
2021/12/14 00:26:48;;;;;;;21.80;15.30;;;8.80;99.90;;;;;;4957632;28;20101;-85
2021/12/14 00:29:19;;;;;;;19.52;14.73;;;8.80;99.90;;;;;;4958406;28;20094;-85
2021/12/14 00:31:45;;;;;;;19.00;14.93;;;8.70;99.90;;;;;;4957887;28;20059;-86
2021/12/14 00:34:10;;;;;;;18.90;13.98;;;8.70;99.90;;;;;;4958531;28;20046;-85
2021/12/14 00:36:37;;;;;;;16.38;13.85;;;8.70;99.90;;;;;;4957759;28;20046;-83
2021/12/14 00:39:07;;;;;;;18.67;14.90;;;8.70;99.90;;;;;;4958412;28;20101;-85
2021/12/14 00:41:34;;;;;;;18.67;14.73;;;8.80;99.90;;;;;;4958300;28;20066;-84
2021/12/14 00:44:00;;;;;;;18.13;14.45;;;8.80;99.90;;;;;;4974100;28;20062;-85
2021/12/14 00:46:26;;;;;;;18.23;14.90;;;8.80;99.90;;;;;;4958091;28;20042;-85
2021/12/14 00:48:51;;;;;;;21.15;14.98;;;8.70;99.90;;;;;;4974987;28;20050;-85
2021/12/14 00:51:21;;;;;;;20.10;14.73;;;8.70;99.90;;;;;;4957747;28;20054;-84
2021/12/14 00:53:47;;;;;;;18.25;14.05;;;8.80;99.90;;;;;;4958151;28;20482;-84
2021/12/14 00:56:12;;;;;;;20.83;13.82;;;8.70;99.90;;;;;;4957785;28;20059;-84
2021/12/14 00:58:38;;;;;;;22.85;15.35;;;8.70;99.90;;;;;;4957854;28;20140;-84
2021/12/14 01:01:07;;;;;;;18.50;14.45;;;8.60;99.90;;;;;;4958213;28;20051;-85
2021/12/14 01:03:35;;;;;;;18.80;13.93;;;8.60;99.90;;;;;;4942062;28;20046;-85
2021/12/14 01:06:01;;;;;;;15.85;13.25;;;8.70;99.90;;;;;;4973204;28;20117;-84
2021/12/14 01:08:34;;;;;;;19.27;14.77;;;8.70;99.90;;;;;;4941954;28;20055;-85
2021/12/14 01:11:25;;;;;;;21.65;14.82;;;8.70;99.90;;;;;;4957769;28;20050;-84
2021/12/14 01:13:59;;;;;;;18.98;13.55;;;8.80;99.90;;;;;;4949827;28;20067;-85
2021/12/14 01:16:48;;;;;;;21.85;14.88;;;8.80;99.90;;;;;;4957618;28;20058;-85
2021/12/14 01:19:19;;;;;;;19.20;14.85;;;8.70;99.90;;;;;;4973694;28;20082;-84
2021/12/14 01:24:42;;;;;;;23.05;16.15;;;8.70;99.90;;;;;;4957555;28;20134;-84
2021/12/14 01:27:13;;;;;;;20.45;15.63;;;9.40;99.90;;;;;;4960173;28;20051;-84
2021/12/14 01:29:39;;;;;;;20.15;14.10;;;8.70;99.90;;;;;;4973469;28;20501;-85
2021/12/14 01:32:05;;;;;;;23.52;17.23;;;8.70;99.90;;;;;;4974324;28;20043;-84
2021/12/14 01:34:32;;;;;;;21.95;16.23;;;8.70;99.90;;;;;;4972787;28;20337;-85
2021/12/14 01:37:05;;;;;;;21.55;16.48;;;8.60;99.90;;;;;;4957019;28;20054;-85
2021/12/14 01:39:48;;;;;;;27.42;16.48;;;8.70;99.90;;;;;;4957833;28;20055;-85
2021/12/14 01:42:22;;;;;;;21.95;16.40;;;8.70;99.90;;;;;;4973970;28;20039;-85
2021/12/14 01:44:57;;;;;;;22.63;17.08;;;8.70;99.90;;;;;;4957088;28;20105;-84
2021/12/14 01:47:29;;;;;;;27.00;17.02;;;8.70;99.90;;;;;;4957623;28;20094;-85
2021/12/14 01:49:55;;;;;;;26.05;17.55;;;8.70;99.90;;;;;;4972933;28;20396;-84
2021/12/14 01:52:27;;;;;;;23.15;18.15;;;8.70;99.90;;;;;;4956583;28;20054;-85
2021/12/14 01:55:00;;;;;;;22.58;16.70;;;8.70;99.90;;;;;;4957353;28;20055;-85
2021/12/14 01:57:28;;;;;;;25.42;18.67;;;8.70;99.90;;;;;;4956827;28;20050;-84
2021/12/14 01:59:57;;;;;;;24.17;18.30;;;8.70;99.90;;;;;;4956714;28;20471;-85
2021/12/14 02:02:41;;;;;;;26.73;18.40;;;8.70;99.90;;;;;;4972992;28;20117;-85
2021/12/14 02:05:15;;;;;;;26.30;18.77;;;8.70;99.90;;;;;;4972535;28;20094;-86
2021/12/14 02:07:41;;;;;;;25.15;17.77;;;8.70;99.90;;;;;;4973356;28;20047;-85
2021/12/14 02:10:16;;;;;;;25.98;18.33;;;8.70;99.90;;;;;;4956356;28;20065;-85
2021/12/14 02:12:42;;;;;;;26.42;18.40;;;8.70;99.90;;;;;;4956926;28;20090;-85
2021/12/14 02:15:13;;;;;;;25.70;17.30;;;8.70;99.90;;;;;;4956207;28;20097;-86
2021/12/14 02:17:39;;;;;;;25.00;18.85;;;8.80;99.90;;;;;;4972900;28;20105;-86
2021/12/14 02:20:06;;;;;;;25.23;18.90;;;8.90;99.90;;;;;;4973226;28;20287;-86
2021/12/14 02:22:32;;;;;;;23.60;17.95;;;8.80;99.90;;;;;;4956860;28;20051;-85
2021/12/14 02:24:57;;;;;;;25.33;18.02;;;8.80;99.90;;;;;;4940271;28;20086;-86
2021/12/14 02:27:23;;;;;;;24.15;17.75;;;8.80;99.90;;;;;;4972650;28;20137;-86
2021/12/14 02:29:49;;;;;;;26.13;18.60;;;8.90;99.90;;;;;;4972026;28;20054;-85
2021/12/14 02:32:20;;;;;;;27.02;19.13;;;8.90;99.90;;;;;;4956082;28;20093;-85
2021/12/14 02:34:50;;;;;;;27.42;18.98;;;8.80;99.90;;;;;;4957212;28;20515;-85
2021/12/14 02:37:16;;;;;;;25.48;18.80;;;8.70;99.90;;;;;;4956474;28;20055;-86
2021/12/14 02:42:10;;;;;;;27.13;19.08;;;8.70;99.90;;;;;;4955446;28;20090;-85
2021/12/14 02:44:35;;;;;;;26.02;18.58;;;8.70;99.90;;;;;;4956624;28;20097;-86
2021/12/14 02:47:07;;;;;;;27.23;19.08;;;8.80;99.90;;;;;;4939382;28;20086;-85
2021/12/14 02:49:33;;;;;;;30.42;20.92;;;8.80;99.90;;;;;;4940345;28;20047;-85
2021/12/14 02:52:05;;;;;;;27.45;20.08;;;8.70;99.90;;;;;;4954994;28;20137;-86
2021/12/14 02:54:48;;;;;;;27.55;19.63;;;8.70;99.90;;;;;;4956119;28;20142;-86
2021/12/14 02:57:21;;;;;;;25.20;19.38;;;8.70;99.90;;;;;;4955814;28;20690;-84
2021/12/14 02:59:47;;;;;;;25.52;19.67;;;8.70;99.90;;;;;;4956078;28;20488;-86
2021/12/14 03:02:19;;;;;;;29.88;20.48;;;8.70;99.90;;;;;;4955383;28;20090;-85
2021/12/14 03:04:47;;;;;;;28.00;19.05;;;8.60;99.90;;;;;;4957463;28;20813;-86
2021/12/14 03:07:13;;;;;;;26.85;20.05;;;8.80;99.90;;;;;;4959628;28;20058;-85
2021/12/14 03:09:55;;;;;;;29.48;21.30;;;8.70;99.90;;;;;;4960464;28;20097;-85
2021/12/14 03:12:41;;;;;;;28.90;21.13;;;8.60;99.90;;;;;;4960570;28;20050;-86
2021/12/14 03:15:19;;;;;;;30.05;20.23;;;8.70;99.90;;;;;;4960141;28;20076;-85
2021/12/14 03:17:46;;;;;;;33.38;21.50;;;8.70;99.90;;;;;;4975698;28;20077;-84
2021/12/14 03:20:26;;;;;;;33.33;22.63;;;8.70;99.90;;;;;;4971351;28;20120;-84
2021/12/14 03:23:03;;;;;;;33.90;22.73;;;8.70;99.90;;;;;;4955755;28;20054;-83
2021/12/14 03:25:29;;;;;;;31.95;22.35;;;8.60;99.90;;;;;;4955397;28;20051;-84
2021/12/14 03:27:56;;;;;;;31.58;22.80;;;8.50;99.90;;;;;;4955297;28;20086;-83
2021/12/14 03:30:25;;;;;;;36.35;22.35;;;8.40;99.90;;;;;;4955466;28;20061;-84
2021/12/14 03:32:52;;;;;;;37.60;24.60;;;8.40;99.90;;;;;;4971459;28;20054;-85
2021/12/14 03:35:19;;;;;;;35.63;23.20;;;8.40;99.90;;;;;;4954901;28;20062;-84
2021/12/14 03:37:45;;;;;;;37.17;23.50;;;8.70;99.90;;;;;;4971273;28;20483;-85
2021/12/14 03:40:11;;;;;;;35.80;24.40;;;8.30;99.90;;;;;;4955166;28;20051;-84
2021/12/14 03:42:39;;;;;;;36.35;24.30;;;8.30;99.90;;;;;;4939464;28;20051;-84
2021/12/14 03:45:12;;;;;;;41.58;24.75;;;8.30;99.90;;;;;;4970336;28;20047;-85
2021/12/14 03:47:43;;;;;;;37.15;24.85;;;8.40;99.90;;;;;;4939069;28;20051;-85
2021/12/14 03:50:16;;;;;;;38.38;25.77;;;8.40;99.90;;;;;;4954474;28;20579;-86
2021/12/14 03:52:41;;;;;;;35.97;24.63;;;8.40;99.90;;;;;;4971057;28;20077;-86
2021/12/14 03:55:14;;;;;;;38.42;25.42;;;8.70;99.90;;;;;;4938828;28;20043;-85
2021/12/14 03:57:40;;;;;;;38.03;24.80;;;8.40;99.90;;;;;;4956237;28;20055;-86
2021/12/14 04:00:11;;;;;;;44.40;27.67;;;8.30;99.90;;;;;;4958377;28;20047;-85
2021/12/14 04:02:37;;;;;;;42.42;26.75;;;8.40;99.90;;;;;;4958962;28;20125;-86
2021/12/14 04:05:06;;;;;;;44.40;27.65;;;8.40;99.90;;;;;;4975479;28;20133;-85
2021/12/14 04:07:35;;;;;;;38.95;25.00;;;8.50;99.90;;;;;;4959523;28;20464;-86
2021/12/14 04:10:01;;;;;;;44.78;28.58;;;8.60;99.90;;;;;;4958605;28;20047;-85
2021/12/14 04:12:26;;;;;;;43.60;26.90;;;8.60;99.90;;;;;;4958966;28;20633;-85
2021/12/14 04:14:55;;;;;;;47.60;29.88;;;8.50;99.90;;;;;;4974354;28;20063;-86
2021/12/14 04:17:22;;;;;;;46.35;28.25;;;8.50;99.90;;;;;;4974430;28;20039;-86
2021/12/14 04:19:48;;;;;;;45.20;29.50;;;8.50;99.90;;;;;;4975077;28;20050;-85
2021/12/14 04:22:16;;;;;;;46.20;28.00;;;8.50;99.90;;;;;;4974364;28;20046;-86
2021/12/14 04:24:43;;;;;;;44.65;26.95;;;8.40;99.90;;;;;;4958741;28;20058;-85
2021/12/14 04:27:11;;;;;;;43.40;28.10;;;8.50;99.90;;;;;;4957595;28;20057;-86
2021/12/14 04:29:37;;;;;;;48.10;29.77;;;8.50;99.90;;;;;;4958585;28;20127;-86
2021/12/14 04:32:04;;;;;;;50.47;30.38;;;8.50;99.90;;;;;;4974303;28;20050;-83
2021/12/14 04:34:30;;;;;;;44.45;28.67;;;8.40;99.90;;;;;;4958170;28;20496;-85
2021/12/14 04:36:56;;;;;;;46.40;28.75;;;8.50;99.90;;;;;;4958613;28;20494;-85
2021/12/14 04:53:32;;;;;;;48.42;29.83;;;8.50;99.90;;;;;;4959662;28;20922;-85
2021/12/14 04:55:58;;;;;;;49.50;30.77;;;8.50;99.90;;;;;;4958460;28;20055;-85
2021/12/14 04:58:29;;;;;;;47.80;30.35;;;8.50;99.90;;;;;;4974025;28;20057;-85
2021/12/14 05:00:55;;;;;;;44.65;28.63;;;8.50;99.90;;;;;;4958270;28;20130;-85
2021/12/14 05:03:32;;;;;;;48.83;30.60;;;8.50;99.90;;;;;;4957607;28;20142;-85
2021/12/14 05:06:10;;;;;;;48.58;30.48;;;8.60;99.90;;;;;;4974251;28;20051;-85
2021/12/14 05:11:09;;;;;;;45.70;28.63;;;8.60;99.90;;;;;;4957296;28;20054;-85
2021/12/14 05:13:39;;;;;;;46.95;30.10;;;8.50;99.90;;;;;;4958418;28;20087;-85
2021/12/14 05:16:05;;;;;;;44.20;28.55;;;8.50;99.90;;;;;;4958180;28;20503;-84
2021/12/14 05:18:31;;;;;;;45.60;28.73;;;8.50;99.90;;;;;;4956920;28;20058;-85
2021/12/14 05:20:58;;;;;;;44.72;29.40;;;8.60;99.90;;;;;;4957835;28;20047;-85
2021/12/14 05:23:29;;;;;;;45.25;29.67;;;8.60;99.90;;;;;;4957420;28;20047;-88
2021/12/14 05:25:56;;;;;;;48.28;29.27;;;8.50;99.90;;;;;;4957571;28;20050;-84
2021/12/14 05:28:21;;;;;;;45.58;29.98;;;8.60;99.90;;;;;;4974240;28;20059;-86
2021/12/14 05:30:50;;;;;;;45.60;27.23;;;8.50;99.90;;;;;;4973769;28;20439;-88
2021/12/14 05:33:27;;;;;;;45.42;29.50;;;8.60;99.90;;;;;;4956855;28;20499;-88
2021/12/14 05:35:54;;;;;;;45.53;30.05;;;8.60;99.90;;;;;;4957797;28;20110;-87
2021/12/14 05:38:28;;;;;;;47.08;31.77;;;8.60;99.90;;;;;;4957034;28;20376;-87
2021/12/14 05:43:28;;;;;;;48.50;30.15;;;8.60;99.90;;;;;;4972858;28;20070;-87
2021/12/14 05:45:57;;;;;;;41.88;27.40;;;8.60;99.90;;;;;;4972996;28;20447;-85
2021/12/14 05:48:26;;;;;;;45.00;30.17;;;8.50;99.90;;;;;;4957094;28;20555;-85
2021/12/14 05:50:54;;;;;;;47.45;30.20;;;8.50;99.90;;;;;;4957315;28;20050;-84
2021/12/14 05:53:22;;;;;;;45.78;29.75;;;8.60;99.90;;;;;;4956586;28;20507;-85
2021/12/14 05:55:48;;;;;;;51.67;31.35;;;8.50;99.90;;;;;;4957133;28;20117;-85
2021/12/14 05:58:16;;;;;;;47.63;30.63;;;8.50;99.90;;;;;;4973119;28;20050;-84
2021/12/14 06:00:44;;;;;;;48.92;30.40;;;8.50;99.90;;;;;;4957225;28;20600;-84
2021/12/14 06:03:19;;;;;;;48.53;31.33;;;8.90;99.90;;;;;;4957451;28;20065;-85
2021/12/14 06:05:45;;;;;;;50.38;30.80;;;8.60;99.90;;;;;;4957542;28;20047;-85
2021/12/14 06:08:23;;;;;;;54.92;33.65;;;8.50;99.90;;;;;;4957394;28;20197;-85
2021/12/14 06:10:49;;;;;;;53.80;33.00;;;8.50;99.90;;;;;;4957038;28;20055;-84
2021/12/14 06:13:17;;;;;;;57.35;34.40;;;8.60;99.90;;;;;;4972806;28;20065;-83
2021/12/14 06:15:43;;;;;;;57.95;33.40;;;8.50;99.90;;;;;;4972378;28;20042;-85
2021/12/14 06:18:09;;;;;;;59.05;34.38;;;8.60;99.90;;;;;;4972928;28;20053;-85
2021/12/14 06:20:34;;;;;;;59.92;34.70;;;8.60;99.90;;;;;;4955997;28;20314;-86
2021/12/14 06:23:00;;;;;;;59.35;34.88;;;8.50;99.90;;;;;;4957679;28;20059;-86
2021/12/14 06:25:27;;;;;;;62.53;36.42;;;8.40;99.90;;;;;;4956098;28;20101;-85
2021/12/14 06:27:55;;;;;;;65.13;36.75;;;8.40;99.90;;;;;;4972898;28;20051;-85
2021/12/14 06:30:24;;;;;;;64.15;37.38;;;8.50;99.90;;;;;;4972092;28;20054;-85
2021/12/14 06:32:55;;;;;;;62.67;37.38;;;8.50;99.90;;;;;;4972518;28;20059;-85
2021/12/14 06:35:27;;;;;;;61.33;35.20;;;8.50;99.90;;;;;;4972106;28;20065;-85
2021/12/14 06:40:34;;;;;;;66.05;36.22;;;8.50;99.90;;;;;;4971890;28;20484;-84
2021/12/14 06:43:03;;;;;;;71.28;39.40;;;8.40;99.90;;;;;;4957030;28;20050;-85
2021/12/14 06:45:34;;;;;;;65.60;38.05;;;8.40;99.90;;;;;;4972014;28;20086;-85
2021/12/14 06:48:13;;;;;;;64.95;38.53;;;8.40;99.90;;;;;;4956558;28;20051;-84
2021/12/14 06:50:45;;;;;;;61.10;37.97;;;8.30;99.90;;;;;;4956747;28;20042;-85
2021/12/14 06:53:13;;;;;;;67.32;38.55;;;8.40;99.90;;;;;;4971507;28;20243;-85
2021/12/14 06:55:39;;;;;;;62.80;37.08;;;8.50;99.90;;;;;;4955112;28;20350;-85
2021/12/14 06:58:06;;;;;;;64.78;38.47;;;8.50;99.90;;;;;;4956060;28;20042;-85
2021/12/14 07:00:32;;;;;;;62.28;36.58;;;8.50;99.90;;;;;;4956126;28;20117;-86
2021/12/14 07:02:58;;;;;;;62.10;35.35;;;8.60;99.90;;;;;;4972044;28;20539;-85
2021/12/14 07:05:24;;;;;;;60.08;35.92;;;8.60;99.90;;;;;;4971694;28;20043;-85
2021/12/14 07:07:50;;;;;;;66.70;39.28;;;8.50;99.90;;;;;;4972094;28;20050;-86
2021/12/14 07:10:16;;;;;;;62.53;36.17;;;8.50;99.90;;;;;;4971577;28;20802;-85
2021/12/14 07:12:42;;;;;;;69.03;38.22;;;8.40;99.90;;;;;;4971203;28;20049;-85
2021/12/14 07:15:18;;;;;;;66.78;35.85;;;8.50;99.90;;;;;;4955835;28;20050;-85
2021/12/14 07:17:53;;;;;;;70.97;40.15;;;8.60;99.90;;;;;;4955456;28;20129;-85
2021/12/14 07:20:37;;;;;;;79.65;42.00;;;8.50;99.90;;;;;;4957239;28;20047;-85
2021/12/14 07:23:15;;;;;;;77.93;41.30;;;8.50;99.90;;;;;;4939671;28;20054;-84
2021/12/14 07:25:40;;;;;;;88.80;44.38;;;8.50;99.90;;;;;;4971142;28;20055;-85
2021/12/14 07:28:11;;;;;;;85.95;45.33;;;8.40;99.90;;;;;;4939860;28;20061;-85
2021/12/14 07:30:37;;;;;;;89.20;43.60;;;8.40;99.90;;;;;;4955081;28;20710;-85
2021/12/14 07:33:18;;;;;;;93.18;45.92;;;8.40;99.90;;;;;;4971085;28;20054;-85
2021/12/14 07:36:04;;;;;;;87.90;44.83;;;8.40;99.90;;;;;;4957154;28;20115;-85
2021/12/14 07:38:55;;;;;;;90.80;45.08;;;8.40;99.90;;;;;;4954858;28;20202;-85
2021/12/14 07:41:21;;;;;;;93.15;44.58;;;8.40;99.90;;;;;;4971436;28;20051;-85
2021/12/14 07:43:50;;;;;;;95.57;46.05;;;8.30;99.90;;;;;;4971097;28;20077;-85
2021/12/14 07:46:21;;;;;;;92.03;43.05;;;8.30;99.90;;;;;;4955740;28;20403;-85
2021/12/14 07:48:52;;;;;;;94.60;45.38;;;8.40;99.90;;;;;;4971098;28;20057;-85
2021/12/14 07:51:20;;;;;;;110.05;49.85;;;8.30;99.90;;;;;;4939274;28;20062;-85
2021/12/14 07:53:52;;;;;;;104.10;45.75;;;8.30;99.90;;;;;;4970271;28;20059;-86
2021/12/14 07:56:42;;;;;;;108.50;48.38;;;8.30;99.90;;;;;;4939167;28;20114;-85
2021/12/14 07:59:21;;;;;;;113.43;50.38;;;8.40;99.90;;;;;;4971275;28;20051;-85
2021/12/14 08:01:47;;;;;;;123.90;52.58;;;8.40;99.90;;;;;;4971051;28;20055;-85
2021/12/14 08:04:13;;;;;;;118.13;51.10;;;8.40;99.90;;;;;;4955200;28;20070;-85
2021/12/14 08:06:54;;;;;;;110.72;50.65;;;8.40;99.90;;;;;;4938501;28;20447;-85
2021/12/14 08:09:50;;;;;;;116.95;52.50;;;8.30;99.90;;;;;;4955730;28;20059;-85
2021/12/14 08:12:46;;;;;;;110.43;50.63;;;8.30;99.90;;;;;;4956200;28;20058;-85
2021/12/14 08:15:20;;;;;;;114.95;51.53;;;8.40;99.90;;;;;;4954862;28;20062;-85
2021/12/14 08:17:47;;;;;;;113.78;50.55;;;8.40;99.90;;;;;;4970315;28;20396;-85
2021/12/14 08:20:19;;;;;;;115.82;51.35;;;8.40;99.90;;;;;;4954706;28;20126;-85
2021/12/14 08:22:45;;;;;;;125.30;52.63;;;8.40;99.90;;;;;;4955428;28;20534;-84
2021/12/14 08:25:11;;;;;;;121.68;52.65;;;8.40;99.90;;;;;;4955050;28;20054;-85
2021/12/14 08:27:38;;;;;;;118.28;52.38;;;8.50;99.90;;;;;;4954638;28;20051;-85
2021/12/14 08:30:07;;;;;;;106.80;48.30;;;8.50;99.90;;;;;;4954786;28;20074;-85
2021/12/14 08:32:35;;;;;;;108.03;49.72;;;8.50;99.90;;;;;;4970184;28;20116;-84
2021/12/14 08:35:04;;;;;;;104.78;50.13;;;8.50;99.90;;;;;;4938810;28;20133;-82
2021/12/14 08:37:45;;;;;;;106.82;50.95;;;8.50;99.90;;;;;;4970535;28;20135;-83
2021/12/14 08:40:18;;;;;;;112.38;50.80;;;8.50;99.90;;;;;;4971619;28;20042;-83
2021/12/14 08:43:02;;;;;;;110.03;49.15;;;8.60;99.90;;;;;;4969940;28;20051;-83
2021/12/14 08:45:33;;;;;;;103.53;48.55;;;8.60;99.90;;;;;;4959164;28;20054;-83
2021/12/14 08:48:02;;;;;;;103.63;49.30;;;8.70;99.90;;;;;;4975176;28;20055;-83
2021/12/14 08:50:29;;;;;;;105.72;50.03;;;8.70;99.90;;;;;;4974343;28;20054;-82
2021/12/14 08:52:54;;;;;;;110.43;50.35;;;8.60;99.90;;;;;;4973366;28;20074;-83
2021/12/14 08:55:21;;;;;;;106.60;48.70;;;8.60;99.90;;;;;;4975115;28;20054;-81
2021/12/14 08:57:47;;;;;;;107.75;49.92;;;8.80;99.90;;;;;;4957570;28;20058;-83
2021/12/14 09:00:16;;;;;;;105.97;49.08;;;8.70;99.90;;;;;;4973753;28;20051;-82
2021/12/14 09:02:42;;;;;;;99.75;50.65;;;8.80;99.90;;;;;;4957294;28;20137;-83
2021/12/14 09:05:17;;;;;;;106.78;51.00;;;8.70;99.90;;;;;;4973700;28;20047;-83
2021/12/14 09:07:43;;;;;;;105.65;48.47;;;8.70;99.90;;;;;;4981812;28;20058;-83
2021/12/14 09:10:12;;;;;;;98.28;48.88;;;8.80;99.90;;;;;;4957554;28;20174;-83
2021/12/14 09:12:40;;;;;;;92.50;45.65;;;8.80;99.90;;;;;;4956514;28;20054;-82
2021/12/14 09:15:12;;;;;;;93.63;49.08;;;8.80;99.90;;;;;;4957399;28;20054;-82
2021/12/14 09:17:37;;;;;;;91.25;46.72;;;8.80;99.90;;;;;;4956898;28;20055;-82
2021/12/14 09:20:16;;;;;;;94.90;47.85;;;8.70;99.90;;;;;;4941160;28;20074;-83
2021/12/14 09:22:47;;;;;;;98.55;48.08;;;8.80;99.90;;;;;;4972650;28;20051;-83
2021/12/14 09:25:15;;;;;;;91.47;48.85;;;8.90;99.90;;;;;;4973365;28;20147;-83
2021/12/14 09:27:41;;;;;;;96.97;47.47;;;8.90;99.90;;;;;;4956640;28;20114;-81
2021/12/14 09:30:08;;;;;;;92.53;48.60;;;8.90;99.90;;;;;;4957065;28;20046;-82
2021/12/14 09:32:36;;;;;;;92.38;47.60;;;8.90;99.90;;;;;;4973122;28;20043;-82
2021/12/14 09:35:05;;;;;;;87.80;47.33;;;8.90;99.90;;;;;;4972384;28;20066;-82
2021/12/14 09:37:32;;;;;;;88.22;47.83;;;8.90;99.90;;;;;;4956737;28;20046;-83
2021/12/14 09:40:00;;;;;;;89.78;49.25;;;8.90;99.90;;;;;;4972593;28;20973;-83
2021/12/14 09:42:28;;;;;;;86.68;47.13;;;8.90;99.90;;;;;;4956998;28;20062;-82
2021/12/14 09:44:57;;;;;;;81.32;45.85;;;9.00;99.90;;;;;;4956884;28;20053;-83
2021/12/14 09:47:29;;;;;;;89.93;49.60;;;9.00;99.90;;;;;;4957625;28;20063;-83
2021/12/14 09:49:56;;;;;;;87.65;49.22;;;9.00;99.90;;;;;;4957892;28;20050;-84
2021/12/14 09:52:24;;;;;;;81.28;46.05;;;9.10;99.90;;;;;;4956711;28;20082;-84
2021/12/14 09:54:50;;;;;;;81.45;45.17;;;9.10;99.90;;;;;;4956546;28;20117;-85
2021/12/14 09:57:39;;;;;;;83.72;44.97;;;9.70;99.90;;;;;;4972770;28;20046;-84
2021/12/14 10:00:15;;;;;;;88.60;47.03;;;9.10;99.90;;;;;;4974304;28;20117;-85
2021/12/14 10:02:41;;;;;;;87.00;47.60;;;9.20;99.90;;;;;;4956872;28;20050;-82
2021/12/14 10:05:29;;;;;;;81.97;44.85;;;9.10;99.90;;;;;;4956829;28;20055;-84
2021/12/14 10:07:56;;;;;;;90.15;48.67;;;9.10;99.90;;;;;;4974012;28;20050;-84
2021/12/14 10:10:22;;;;;;;86.53;48.90;;;9.10;99.90;;;;;;4973017;28;20110;-84
2021/12/14 10:12:53;;;;;;;94.65;47.42;;;9.20;99.90;;;;;;4972486;28;20554;-84
2021/12/14 10:15:31;;;;;;;86.18;47.78;;;9.20;99.90;;;;;;4974226;28;20109;-83
2021/12/14 10:18:01;;;;;;;88.18;46.22;;;9.20;99.90;;;;;;4973971;28;20093;-83
2021/12/14 10:20:32;;;;;;;88.50;44.08;;;9.10;99.90;;;;;;4957148;28;20051;-84
2021/12/14 10:22:59;;;;;;;92.40;46.55;;;9.20;99.90;;;;;;4956408;28;20057;-83
2021/12/14 10:25:25;;;;;;;100.22;49.63;;;9.30;99.90;;;;;;4956456;28;20483;-84
2021/12/14 10:27:53;;;;;;;92.20;47.58;;;9.20;99.90;;;;;;4972098;28;20053;-83
2021/12/14 10:30:28;;;;;;;93.35;48.53;;;9.10;99.90;;;;;;4972401;28;20061;-84
2021/12/14 10:32:54;;;;;;;99.45;50.67;;;9.10;99.90;;;;;;4971991;28;20050;-84
2021/12/14 10:35:23;;;;;;;97.90;49.17;;;9.00;99.90;;;;;;4957071;28;20506;-84
2021/12/14 10:37:57;;;;;;;101.63;49.85;;;9.00;99.90;;;;;;4973437;28;20078;-84
2021/12/14 10:43:18;;;;;;;91.82;46.17;;;9.00;99.90;;;;;;4972244;28;20063;-84
2021/12/14 10:46:11;;;;;;;95.30;50.88;;;9.10;99.90;;;;;;4956200;28;20051;-84
2021/12/14 10:48:39;;;;;;;92.97;47.45;;;9.00;99.90;;;;;;4956163;28;20126;-84
2021/12/14 10:51:08;;;;;;;92.95;48.67;;;9.10;99.90;;;;;;4955552;28;20066;-83
2021/12/14 10:53:34;;;;;;;91.18;48.45;;;9.10;99.90;;;;;;4955763;28;20129;-83
2021/12/14 10:56:05;;;;;;;93.05;47.90;;;9.10;99.90;;;;;;4939773;28;20380;-83
2021/12/14 10:58:30;;;;;;;88.75;46.60;;;9.10;99.90;;;;;;4972300;28;20050;-83
2021/12/14 11:01:03;;;;;;;89.68;46.95;;;9.20;99.90;;;;;;4955591;28;20101;-83
2021/12/14 11:03:34;;;;;;;80.32;43.90;;;9.20;99.90;;;;;;4955885;28;20059;-83
2021/12/14 11:06:00;;;;;;;93.30;46.42;;;9.20;99.90;;;;;;4971622;28;20049;-83
2021/12/14 11:10:58;;;;;;;93.20;44.72;;;9.30;99.90;;;;;;4972682;28;20055;-83
2021/12/14 11:13:24;;;;;;;82.20;43.03;;;9.30;99.90;;;;;;4971769;28;20060;-83
2021/12/14 11:15:52;;;;;;;92.28;43.17;;;9.20;99.90;;;;;;4955473;28;20061;-81
2021/12/14 11:18:21;;;;;;;85.05;42.28;;;9.20;99.90;;;;;;4971502;28;20047;-83
2021/12/14 11:21:07;;;;;;;84.20;42.55;;;9.10;99.90;;;;;;4971516;28;20055;-83
2021/12/14 11:23:35;;;;;;;87.07;43.92;;;9.20;99.90;;;;;;4972460;28;20051;-83
2021/12/14 11:26:05;;;;;;;84.03;43.42;;;9.30;99.90;;;;;;4954821;28;20046;-84
2021/12/14 11:28:39;;;;;;;97.65;44.78;;;9.20;99.90;;;;;;4972684;28;20050;-83
2021/12/14 11:31:24;;;;;;;87.97;41.60;;;9.10;99.90;;;;;;4955937;28;20058;-83
2021/12/14 11:34:08;;;;;;;80.13;38.95;;;9.10;99.90;;;;;;4971538;28;20211;-84
2021/12/14 11:36:39;;;;;;;79.43;39.58;;;9.10;99.90;;;;;;4971568;28;20051;-83
2021/12/14 11:39:23;;;;;;;83.22;41.08;;;9.30;99.90;;;;;;4955347;28;20050;-82
2021/12/14 11:41:54;;;;;;;88.95;42.47;;;9.30;99.90;;;;;;4956733;28;20129;-83
2021/12/14 11:44:23;;;;;;;77.57;39.83;;;9.20;99.90;;;;;;4955197;28;20050;-83
2021/12/14 11:46:55;;;;;;;84.32;40.85;;;9.20;99.90;;;;;;4972719;28;20125;-83
2021/12/14 11:49:23;;;;;;;78.60;40.05;;;9.20;99.90;;;;;;4971440;28;20094;-83
2021/12/14 11:51:48;;;;;;;84.72;39.97;;;9.30;99.90;;;;;;4955102;28;20105;-83
2021/12/14 11:54:16;;;;;;;85.22;40.13;;;9.30;99.90;;;;;;4970822;28;20147;-82
2021/12/14 11:56:42;;;;;;;73.85;35.65;;;9.20;99.90;;;;;;4971789;28;20065;-83
2021/12/14 11:59:07;;;;;;;86.65;40.95;;;9.30;99.90;;;;;;4954941;28;20054;-85
2021/12/14 12:01:33;;;;;;;86.15;39.88;;;9.20;99.90;;;;;;4971450;28;20050;-85
2021/12/14 12:04:10;;;;;;;70.18;32.45;;;9.20;99.90;;;;;;4971173;28;20047;-84
2021/12/14 12:09:28;;;;;;;77.72;38.72;;;9.30;99.90;;;;;;4971389;28;20053;-85
2021/12/14 12:09:52;;;;;;;80.65;38.25;;;9.30;99.90;;;;;;4972567;28;20117;-83
2021/12/14 12:12:38;;;;;;;84.68;38.90;;;9.30;99.90;;;;;;4970900;28;20047;-83
2021/12/14 12:15:08;;;;;;;88.28;39.38;;;9.20;99.90;;;;;;4971009;28;20085;-83
2021/12/14 12:17:42;;;;;;;90.47;39.42;;;9.20;99.90;;;;;;4972697;28;20051;-83
2021/12/14 12:20:17;;;;;;;84.70;38.00;;;9.20;99.90;;;;;;4958425;28;20061;-83
2021/12/14 12:23:03;;;;;;;85.43;37.90;;;9.20;99.90;;;;;;4975325;28;20114;-84
2021/12/14 12:25:48;;;;;;;78.82;34.90;;;9.30;99.90;;;;;;4958967;28;20054;-84
2021/12/14 12:28:39;;;;;;;89.15;39.17;;;9.30;99.90;;;;;;4975109;28;20137;-84
2021/12/14 12:31:20;;;;;;;81.03;34.92;;;9.20;99.90;;;;;;4961753;28;20047;-83
2021/12/14 12:33:56;;;;;;;80.00;38.47;;;9.30;99.90;;;;;;4958904;28;20047;-84
2021/12/14 12:36:23;;;;;;;78.97;34.13;;;9.20;99.90;;;;;;4975332;28;20098;-83
2021/12/14 12:39:00;;;;;;;83.70;35.47;;;9.30;99.90;;;;;;4974434;28;20094;-83
2021/12/14 12:41:51;;;;;;;73.80;34.60;;;9.30;99.90;;;;;;4974525;28;20512;-83
2021/12/14 12:44:25;;;;;;;84.88;35.88;;;9.30;99.90;;;;;;4973926;28;20086;-83
2021/12/14 12:47:04;;;;;;;83.75;36.95;;;9.30;99.90;;;;;;4975310;28;20046;-84
2021/12/14 12:49:31;;;;;;;81.55;36.25;;;9.40;99.90;;;;;;4974501;28;20539;-83
2021/12/14 12:52:12;;;;;;;71.22;32.17;;;9.30;99.90;;;;;;4958137;28;20051;-83
2021/12/14 12:54:42;;;;;;;82.63;36.75;;;9.40;99.90;;;;;;4958540;28;20495;-85
2021/12/14 12:57:09;;;;;;;85.90;36.33;;;9.30;99.90;;;;;;4973603;28;20047;-84
2021/12/14 12:59:43;;;;;;;85.68;35.95;;;9.30;99.90;;;;;;4958114;28;20051;-84
2021/12/14 13:02:24;;;;;;;;;;;9.50;99.90;;;;;;4973937;28;20062;-85
2021/12/14 13:04:53;;;;;;;77.95;35.00;;;9.40;99.90;;;;;;4974063;28;19922;-84
2021/12/14 13:07:27;;;;;;;78.28;35.13;;;9.40;99.90;;;;;;4974956;28;20050;-84
2021/12/14 13:10:13;;;;;;;78.87;34.20;;;9.40;99.90;;;;;;4974019;28;20051;-84
2021/12/14 13:12:46;;;;;;;80.65;34.42;;;9.40;99.90;;;;;;4974139;28;20290;-83
2021/12/14 13:15:27;;;;;;;76.18;33.58;;;9.50;99.90;;;;;;4973044;28;20113;-82
2021/12/14 13:18:31;;;;;;;78.15;36.58;;;9.40;99.90;;;;;;4973431;28;20051;-84
2021/12/14 13:21:20;;;;;;;80.68;34.95;;;9.40;99.90;;;;;;4973700;28;20051;-83
2021/12/14 13:23:51;;;;;;;81.10;33.95;;;9.40;99.90;;;;;;4953921;28;20514;-83
2021/12/14 13:26:35;;;;;;;75.68;31.00;;;9.30;99.90;;;;;;4956881;28;20051;-81
2021/12/14 13:29:14;;;;;;;78.00;34.27;;;9.40;99.90;;;;;;4973527;28;20058;-84